x

Central Aleutians 230nm Sw Dutch Harbor (46072) Wave Buoy

12:50 - Wed 3rd Jun 2015 All times are UTC.

  • Sig Wave height 6.2ft
  • Peak Period 15s
  • Average Period 6s
  • Wind
    16mph, 20mph gusts
  • Sea Temp 45°f
  • Ar Temp 44°f
  • Sea Pressure 1000.5mb

More Historic Weather Station data

Upgrade to MSW Pro to gain access to the past 30 days of data for over 8000 Wavebouys and Weather Stations around the globe.

Join Pro

Comparision Forecast

View Surf forecast
   
Qua 06/03 12:50 6ft 15s 6s 16 20 mph 1000.5mb 45f 44f
11:50 5.5ft 6s 5s 16 18 mph 1000.5mb 45f 45f
10:50 5ft 6s 5s 18 22 mph 1000.5mb 45f 45f
9:50 5ft 6s 5s 18 22 mph 1000.4mb 45f 45f
8:50 5ft 6s 4s 18 22 mph 1000.2mb 45f 45f
7:50 5ft 5s 4s 20 25 mph 999.9mb 45f 45f
6:50 5ft 6s 4s 20 22 mph 999.8mb 45f 45f
5:50 5.5ft 6s 5s 18 22 mph 999.6mb 45f 45f
4:50 5.5ft 6s 4s 20 27 mph 999.8mb 45f 45f
3:50 6ft 6s 5s 20 25 mph 1000mb 45f 45f
2:50 5.5ft 6s 4s 18 22 mph 1000.4mb 45f 45f
1:50 5ft 6s 4s 20 25 mph 1000.4mb 45f 45f
12:50 5.5ft 6s 4s 20 25 mph 1000.7mb 45f 45f
Ter 06/02 11:50 5.5ft 6s 4s 20 25 mph 1000.8mb 45f 45f
10:50 5ft 6s 4s 22 25 mph 1001.3mb 45f 45f
9:50 5ft 5s 4s 20 25 mph 1001.6mb 45f 45f
8:50 5ft 6s 4s 20 25 mph 1001.9mb 45f 45f
7:50 4.5ft 5s 4s 18 22 mph 1002.2mb 45f 44f
6:50 4.5ft 5s  -  18 20 mph 1002mb 45f 45f
5:50 4.5ft 5s 4s 18 20 mph 1002.2mb 45f 45f
4:50 4.5ft 5s 4s 20 22 mph 1002.2mb 45f 44f
3:50  -   -   -  20 25 mph 1001.9mb 45f 44f
2:50 4.5ft 5s 4s 22 25 mph 1002.2mb 45f 44f
1:50 4.5ft 5s 4s 18 22 mph 1002.7mb 45f 44f
12:50 4.5ft 5s 4s 20 27 mph 1003mb 45f 45f
11:50 4.5ft 5s 4s 20 25 mph 1003.3mb 45f 45f
10:50 4.5ft 4s 4s 18 22 mph 1003.5mb 45f 45f
9:50 4.5ft 4s 4s 18 22 mph 1003.7mb 45f 45f
8:50 4ft 4s 4s 20 25 mph 1003.9mb 45f 45f
7:50 3.5ft 7s 4s 18 22 mph 1004.2mb 45f 44f
6:50 3.5ft 4s 4s 18 22 mph 1004.3mb 45f 44f
5:50 4ft 8s 4s 16 18 mph 1004.8mb 45f 45f
4:50 4ft 8s 4s 16 20 mph 1005.6mb 45f 45f
3:50 4ft 8s 4s 18 22 mph 1006mb 46f 45f
2:50 3.5ft 8s 4s 18 20 mph 1005.9mb 46f 45f
1:50 3.5ft 8s 4s 16 18 mph 1006.2mb 46f 45f
12:50 4ft 8s 4s 16 20 mph 1006.8mb 45f 45f
Seg 06/01 11:50 3.5ft 8s 4s 16 20 mph 1007.4mb 45f 45f
10:50 4ft 7s 5s 16 20 mph 1008.2mb 45f 44f
9:50 4ft 8s 5s 11 13 mph 1008.8mb 45f 44f
8:50 4.5ft 8s 5s 13 16 mph 1009.3mb 45f 44f
7:50 4.5ft 8s 5s 13 18 mph 1009.6mb 45f 44f
6:50 4.5ft 8s 5s 16
mph
1009.9mb 45f 44f
5:50 4.5ft 7s 5s 16 18 mph 1010mb 45f 44f
4:50 4.5ft 8s 5s 11 13 mph 1010.5mb 45f 44f
3:50 4.5ft 9s 6s 16 18 mph 1010.6mb 45f 44f
2:50 4.5ft 8s 6s 2 4 mph 1010.9mb 45f 43f
1:50 4.5ft 9s 6s 7 9 mph 1011.3mb 45f 43f
12:50 5ft 9s 7s 7 9 mph 1011.7mb 45f 45f
11:50 4.5ft 8s 6s 9 11 mph 1012mb 45f 45f
10:50 4.5ft 8s 6s 11 16 mph 1012.4mb 45f 45f
9:50 5ft 9s 6s 11 13 mph 1012.8mb 45f 45f
8:50 5ft 8s 6s 11 13 mph 1013mb 45f 45f
7:50 5ft 8s 7s 7 9 mph 1013mb 45f 44f
6:50 5ft 8s 7s 11 13 mph 1012.6mb 45f 44f
5:50 6ft 8s 7s 11 13 mph 1012.7mb 45f 44f
4:50 5ft 9s 7s 9 11 mph 1012.7mb 46f 44f
3:50 5ft 9s 7s 11 13 mph 1012.5mb 47f 44f
2:50 5ft 9s 7s 7 9 mph 1012.7mb 48f 45f
1:50 5ft 8s 7s 4 7 mph 1013.1mb 47f 44f
12:50 5ft 8s 7s 4 7 mph 1013.4mb 47f 44f
Dom 05/31 11:50 5ft 8s 7s 7 9 mph 1013.4mb 46f 44f
10:50 5ft 10s 7s 4 7 mph 1013.5mb 46f 44f
9:50 5.5ft 9s 6s 7 9 mph 1013.5mb 45f 44f
8:50 6ft 10s 7s 7
mph
1013.5mb 44f 43f
7:50 5.5ft 8s 6s 9
mph
1013.7mb 44f 43f
6:50 6ft 10s 7s 9 11 mph 1013.6mb 44f 43f
5:50 6.5ft 9s 7s 9 11 mph 1013.4mb 44f 43f
4:50 6.5ft 8s 7s 9 11 mph 1013.2mb 44f 43f
3:50 7ft 9s 7s 9
mph
1013.4mb 44f 43f
2:50 6.5ft 10s 7s 9
mph
1013.3mb 44f 43f
1:50 6.5ft 10s 7s 7 9 mph 1013.4mb 44f 42f
12:50 6ft 10s 7s 7 9 mph 1013.3mb 44f 42f
11:50 7ft 10s 7s 7 9 mph 1013.4mb 44f 43f
10:50 6.5ft 9s 7s 11
mph
1013.6mb 44f 42f
9:50 6.5ft 11s 7s 9 11 mph 1013.7mb 44f 42f
8:50 6.5ft 10s 7s 9
mph
1013.9mb 44f 42f
7:50 7.5ft 10s 7s 11
mph
1013.6mb 44f 42f
6:50 6.5ft 10s 6s 11 13 mph 1013.2mb 44f 43f
5:50 7.5ft 10s 7s 11 13 mph 1013.1mb 44f 43f
4:50 7ft 10s 6s 11 13 mph 1013.1mb 44f 42f
3:50 8ft 10s 6s 11 13 mph 1013.1mb 44f 43f
2:50 8.5ft 11s 7s 11 13 mph 1013.1mb 44f 42f
1:50 8.5ft 9s 7s 16 18 mph 1013.1mb 44f 43f
12:50 8.5ft 10s 6s 18 20 mph 1013.1mb 44f 43f
Sáb 05/30 11:50 8ft 11s 7s 18 20 mph 1013.5mb 44f 42f
10:50 8ft 11s 7s 16 18 mph 1013.8mb 44f 43f
9:50 8.5ft 11s 7s 13 16 mph 1013.9mb 44f 42f
8:50 9ft 11s 7s 18 22 mph 1014mb 44f 43f
7:50 9.5ft 11s 7s 20 25 mph 1014.3mb 44f 43f
6:50 8.5ft 11s 6s 20 22 mph 1014.6mb 44f 42f
5:50 9ft 9s 7s 18 22 mph 1014.7mb 44f 42f
4:50 9ft 10s 7s 18 20 mph 1014.8mb 44f 42f
3:50 9ft 11s 7s 18 20 mph 1015.2mb 44f 41f
2:50 9ft 11s 7s 16 20 mph 1015.4mb 44f 42f